Time;durP1;ratioP1;P1;durP2;ratioP2;P2;SDS_P1;SDS_P2;PMS_P1;PMS_P2;Temp;Humidity;BMP_temperature;BMP_pressure;BME280_temperature;BME280_humidity;BME280_pressure;Samples;Min_cycle;Max_cycle;Signal;HPM_P1;HPM_P2
2023/10/06 00:00:40;;;;;;;4.25;2.50;;;;;;;21.80;40.08;101039.31;5114680;28;20043;-64
2023/10/06 00:03:13;;;;;;;4.32;2.28;;;;;;;21.78;40.02;101038.59;5114727;28;20058;-63
2023/10/06 00:05:44;;;;;;;3.78;2.10;;;;;;;21.76;40.01;101032.47;5114710;28;20484;-63
2023/10/06 00:08:16;;;;;;;4.82;2.22;;;;;;;21.76;40.02;101037.91;5114709;28;20048;-63
2023/10/06 00:10:51;;;;;;;4.68;2.33;;;;;;;21.73;39.93;101039.06;5114761;28;20151;-63
2023/10/06 00:13:29;;;;;;;3.65;2.00;;;;;;;21.70;40.06;101034.75;5114854;28;20445;-63
2023/10/06 00:15:58;;;;;;;5.28;2.40;;;;;;;21.71;39.86;101031.06;5114721;28;20058;-63
2023/10/06 00:18:27;;;;;;;4.03;2.30;;;;;;;21.70;40.18;101028.47;5114547;28;20122;-63
2023/10/06 00:20:57;;;;;;;4.28;2.30;;;;;;;21.68;39.99;101036.75;5114360;28;20101;-63
2023/10/06 00:23:28;;;;;;;3.85;2.00;;;;;;;21.67;40.17;101028.75;5114370;28;20043;-63
2023/10/06 00:25:56;;;;;;;4.82;2.42;;;;;;;21.67;40.16;101023.31;5113740;28;20040;-63
2023/10/06 00:28:27;;;;;;;5.07;2.40;;;;;;;21.65;39.88;101015.34;5114524;28;20046;-63
2023/10/06 00:30:58;;;;;;;4.40;2.13;;;;;;;21.64;40.26;101024.47;5114456;28;20047;-63
2023/10/06 00:33:32;;;;;;;3.88;2.00;;;;;;;21.64;39.89;101029.91;5114313;28;20044;-63
2023/10/06 00:36:10;;;;;;;5.13;2.28;;;;;;;21.63;40.06;101038.22;5114170;28;20048;-63
2023/10/06 00:38:39;;;;;;;4.38;2.40;;;;;;;21.61;40.02;101043.75;5114130;28;20257;-63
2023/10/06 00:41:08;;;;;;;5.13;2.17;;;;;;;21.61;39.97;101041.03;5114297;28;20050;-63
2023/10/06 00:43:39;;;;;;;4.18;2.20;;;;;;;21.60;40.22;101038.47;5114107;28;20119;-63
2023/10/06 00:46:08;;;;;;;5.15;2.28;;;;;;;21.59;40.10;101029.47;5114003;28;20146;-63
2023/10/06 00:48:39;;;;;;;4.60;2.33;;;;;;;21.58;40.20;101035.91;5113784;28;20075;-64
2023/10/06 00:51:12;;;;;;;4.68;2.45;;;;;;;21.57;40.43;101039.63;5114154;28;20051;-63
2023/10/06 00:53:41;;;;;;;5.97;2.10;;;;;;;21.56;40.07;101046.06;5113981;28;20048;-63
2023/10/06 00:56:14;;;;;;;5.05;2.42;;;;;;;21.56;40.12;101050.63;5113743;28;20048;-64
2023/10/06 00:58:45;;;;;;;4.45;2.15;;;;;;;21.55;40.06;101051.63;5113766;28;20044;-63
2023/10/06 01:01:17;;;;;;;4.05;2.15;;;;;;;21.54;40.28;101048.06;5113484;28;20043;-63
2023/10/06 01:03:49;;;;;;;5.07;2.40;;;;;;;21.54;40.18;101049.94;5113890;28;20048;-63
2023/10/06 01:06:22;;;;;;;4.97;2.42;;;;;;;21.53;40.22;101043.66;5113607;28;20043;-63
2023/10/06 01:09:05;;;;;;;4.50;2.30;;;;;;;21.52;40.54;101031.06;5113682;28;20122;-64
2023/10/06 01:11:40;;;;;;;4.15;2.10;;;;;;;21.52;40.29;101038.34;5113245;28;20457;-63
2023/10/06 01:14:11;;;;;;;4.25;2.05;;;;;;;21.51;40.29;101039.34;5113547;28;20048;-63
2023/10/06 01:16:39;;;;;;;5.00;2.22;;;;;;;21.50;40.42;101033.06;5113490;28;20457;-64
2023/10/06 01:19:26;;;;;;;5.15;2.38;;;;;;;21.48;40.31;101040.50;5113376;28;20054;-63
2023/10/06 01:21:56;;;;;;;4.30;2.10;;;;;;;21.48;40.46;101035.06;5113296;28;20047;-63
2023/10/06 01:24:26;;;;;;;5.45;2.53;;;;;;;21.47;40.11;101035.22;5113045;28;20506;-63
2023/10/06 01:26:58;;;;;;;3.92;2.17;;;;;;;21.45;40.10;101040.78;5113046;28;20048;-64
2023/10/06 01:29:30;;;;;;;4.15;2.20;;;;;;;21.42;40.27;101032.91;5113294;28;20082;-63
2023/10/06 01:31:58;;;;;;;4.53;2.28;;;;;;;21.44;40.29;101044.50;5113135;28;20135;-63
2023/10/06 01:34:27;;;;;;;4.00;2.10;;;;;;;21.43;40.25;101049.06;5112934;28;20044;-63
2023/10/06 01:36:56;;;;;;;4.32;2.28;;;;;;;21.42;40.23;101051.91;5112722;28;20471;-63
2023/10/06 01:39:30;;;;;;;5.20;2.53;;;;;;;21.41;40.22;101055.63;5113110;28;20051;-63
2023/10/06 01:42:04;;;;;;;4.45;2.03;;;;;;;21.39;40.00;101058.47;5112896;28;20060;-63
2023/10/06 01:44:34;;;;;;;4.68;2.40;;;;;;;21.39;40.23;101060.34;5112797;28;20533;-63
2023/10/06 01:47:04;;;;;;;4.20;1.98;;;;;;;21.37;40.09;101056.91;5112698;28;20047;-63
2023/10/06 01:49:35;;;;;;;4.38;2.10;;;;;;;21.35;40.16;101054.34;5113017;28;20062;-63
2023/10/06 01:52:05;;;;;;;4.70;2.50;;;;;;;21.37;39.97;101059.63;5112795;28;20039;-63
2023/10/06 01:54:39;;;;;;;4.03;2.10;;;;;;;21.36;40.38;101057.94;5112478;28;20051;-63
2023/10/06 01:57:10;;;;;;;4.10;2.28;;;;;;;21.35;40.12;101050.78;5112605;28;20131;-63
2023/10/06 01:59:38;;;;;;;5.40;2.65;;;;;;;21.34;40.17;101059.94;5112628;28;20075;-64
2023/10/06 02:02:12;;;;;;;4.20;2.00;;;;;;;21.32;40.00;101056.47;5112769;28;20047;-63
2023/10/06 02:04:45;;;;;;;4.70;2.20;;;;;;;21.30;40.22;101059.34;5112664;28;20048;-66
2023/10/06 02:07:18;;;;;;;4.40;2.05;;;;;;;21.31;40.13;101065.63;5112316;28;20047;-62
2023/10/06 02:09:49;;;;;;;4.60;2.40;;;;;;;21.30;40.08;101072.06;5112895;28;20126;-62
2023/10/06 02:12:17;;;;;;;4.70;2.30;;;;;;;21.29;40.36;101067.63;5112619;28;20052;-63
2023/10/06 02:14:49;;;;;;;4.20;2.28;;;;;;;21.27;40.28;101064.19;5112533;28;20072;-64
2023/10/06 02:17:17;;;;;;;4.65;2.25;;;;;;;21.28;40.27;101074.06;5112346;28;20050;-63
2023/10/06 02:19:46;;;;;;;4.50;2.17;;;;;;;21.26;40.44;101074.19;5112544;28;20039;-63
2023/10/06 02:22:18;;;;;;;4.97;2.50;;;;;;;21.25;40.16;101064.31;5112205;28;20056;-63
2023/10/06 02:24:48;;;;;;;4.93;2.60;;;;;;;21.24;40.30;101078.88;5112186;28;20122;-63
2023/10/06 02:27:16;;;;;;;4.18;2.20;;;;;;;21.24;40.38;101072.59;5112355;28;20040;-63
2023/10/06 02:29:45;;;;;;;4.20;2.05;;;;;;;21.24;40.07;101076.16;5112284;28;20048;-63
2023/10/06 02:32:13;;;;;;;5.18;2.42;;;;;;;21.23;40.05;101063.59;5112161;28;20055;-63
2023/10/06 02:34:44;;;;;;;5.65;2.42;;;;;;;21.21;40.43;101070.16;5112109;28;20411;-62
2023/10/06 02:37:17;;;;;;;5.03;2.30;;;;;;;21.20;40.39;101068.44;5112011;28;20047;-62
2023/10/06 02:39:47;;;;;;;4.35;2.50;;;;;;;21.21;40.21;101064.72;5112194;28;20047;-62
2023/10/06 02:42:19;;;;;;;4.47;2.13;;;;;;;21.18;40.69;101065.88;5111912;28;20190;-64
2023/10/06 02:44:49;;;;;;;4.75;2.20;;;;;;;21.18;40.54;101065.00;5112042;28;20126;-63
2023/10/06 02:47:17;;;;;;;5.82;2.33;;;;;;;21.15;40.46;101067.03;5112148;28;20055;-64
2023/10/06 02:49:49;;;;;;;3.50;2.00;;;;;;;21.15;40.71;101071.59;5115296;28;20461;-64
2023/10/06 02:52:20;;;;;;;4.80;2.40;;;;;;;21.12;40.25;101072.69;5116154;28;20385;-64
2023/10/06 02:55:05;;;;;;;4.88;2.47;;;;;;;21.12;40.59;101066.41;5116387;28;20046;-63
2023/10/06 02:57:35;;;;;;;4.32;2.13;;;;;;;21.10;40.62;101069.28;5116027;28;20543;-63
2023/10/06 03:00:28;;;;;;;4.90;2.25;;;;;;;21.08;40.25;101068.56;5115897;28;20047;-64
2023/10/06 03:03:02;;;;;;;5.55;2.35;;;;;;;21.07;40.17;101055.16;5116245;28;20043;-63
2023/10/06 03:05:33;;;;;;;4.72;2.45;;;;;;;21.05;40.34;101062.56;5097350;28;20495;-63
2023/10/06 03:08:08;;;;;;;4.10;2.30;;;;;;;21.05;40.61;101065.28;5098453;28;20082;-64
2023/10/06 03:10:43;;;;;;;4.80;2.55;;;;;;;21.04;40.59;101069.00;5115880;28;20091;-64
2023/10/06 03:13:14;;;;;;;4.60;2.17;;;;;;;21.03;40.37;101072.69;5095208;28;20062;-63
2023/10/06 03:15:45;;;;;;;5.22;2.40;;;;;;;21.00;40.40;101084.69;5095615;28;20051;-63
2023/10/06 03:18:15;;;;;;;5.63;2.60;;;;;;;21.01;40.17;101082.81;5106181;28;20507;-64
2023/10/06 03:20:48;;;;;;;5.50;2.63;;;;;;;21.00;40.42;101100.94;5115587;28;20137;-64
2023/10/06 03:23:30;;;;;;;4.68;2.25;;;;;;;20.99;40.60;101096.53;5115578;28;20050;-63
2023/10/06 03:26:03;;;;;;;4.90;2.50;;;;;;;20.98;40.38;101100.25;5115701;28;20055;-64
2023/10/06 03:28:36;;;;;;;5.20;2.45;;;;;;;20.97;40.66;101105.81;5115379;28;20118;-64
2023/10/06 03:31:21;;;;;;;5.35;2.30;;;;;;;20.98;40.51;101110.22;5115441;28;20089;-64
2023/10/06 03:33:54;;;;;;;5.10;2.30;;;;;;;20.96;40.56;101106.81;5115527;28;20048;-64
2023/10/06 03:36:36;;;;;;;5.82;2.53;;;;;;;20.95;40.60;101119.50;5115400;28;20051;-64
2023/10/06 03:39:10;;;;;;;6.22;3.05;;;;;;;20.95;40.31;101119.50;5115464;28;20052;-64
2023/10/06 03:41:44;;;;;;;4.80;2.38;;;;;;;20.95;40.81;101118.66;5105346;28;20056;-64
2023/10/06 03:44:12;;;;;;;;;;;;;;;20.93;40.35;101105.22;5095250;28;20048;-63
2023/10/06 03:46:41;;;;;;;5.38;2.50;;;;;;;20.94;40.68;101117.81;5094934;28;19920;-64
2023/10/06 03:49:09;;;;;;;5.45;2.50;;;;;;;20.92;40.37;101108.91;5094879;28;20044;-63
2023/10/06 03:51:38;;;;;;;5.20;2.55;;;;;;;20.93;40.51;101107.06;5094752;28;20044;-64
2023/10/06 03:54:11;;;;;;;5.22;2.63;;;;;;;20.92;40.76;101103.50;5094530;28;20047;-63
2023/10/06 03:56:41;;;;;;;4.70;2.50;;;;;;;20.90;40.70;101110.91;5094538;28;20131;-63
2023/10/06 03:59:15;;;;;;;5.00;2.53;;;;;;;20.90;40.49;101105.50;5094032;28;20071;-64
2023/10/06 04:01:44;;;;;;;4.70;2.50;;;;;;;20.90;40.74;101107.34;5099947;28;20075;-64
2023/10/06 04:04:15;;;;;;;6.90;2.95;;;;;;;20.88;40.88;101099.34;5114859;28;20040;-64
2023/10/06 04:06:44;;;;;;;5.28;2.90;;;;;;;20.88;40.73;101107.50;5114825;28;20126;-63
2023/10/06 04:09:19;;;;;;;5.88;2.90;;;;;;;20.88;40.44;101118.34;5114634;28;20408;-64
2023/10/06 04:11:49;;;;;;;5.93;2.65;;;;;;;20.86;40.85;101107.63;5114601;28;20047;-64
2023/10/06 04:14:17;;;;;;;5.32;2.70;;;;;;;20.85;40.76;101118.63;5114791;28;20050;-63
2023/10/06 04:16:46;;;;;;;4.32;2.45;;;;;;;20.85;40.86;101124.03;5114636;28;20048;-63
2023/10/06 04:19:16;;;;;;;5.45;2.78;;;;;;;20.84;40.95;101114.16;5114510;28;20825;-63
2023/10/06 04:21:45;;;;;;;5.30;2.55;;;;;;;20.82;40.52;101119.72;5114335;28;20051;-63
2023/10/06 04:24:14;;;;;;;5.07;2.55;;;;;;;20.80;40.47;101118.16;5114475;28;20044;-63
2023/10/06 04:26:43;;;;;;;4.78;2.45;;;;;;;20.79;40.78;101114.59;5114422;28;20048;-63
2023/10/06 04:29:13;;;;;;;5.70;2.40;;;;;;;20.80;40.82;101120.88;5114391;28;20054;-63
2023/10/06 04:31:42;;;;;;;5.07;2.80;;;;;;;20.79;40.43;101121.88;5114123;28;20055;-63
2023/10/06 04:34:11;;;;;;;5.07;2.65;;;;;;;20.78;40.52;101121.00;5114240;28;20051;-63
2023/10/06 04:36:39;;;;;;;4.80;2.60;;;;;;;20.78;40.59;101122.88;5113923;28;20044;-63
2023/10/06 04:39:10;;;;;;;4.43;2.20;;;;;;;20.77;40.58;101132.00;5114187;28;20050;-63
2023/10/06 04:41:41;;;;;;;4.63;2.33;;;;;;;20.75;40.88;101133.97;5113866;28;20044;-63
2023/10/06 04:44:10;;;;;;;5.38;2.65;;;;;;;20.74;40.68;101126.84;5113972;28;20050;-63
2023/10/06 04:46:39;;;;;;;5.20;2.53;;;;;;;20.74;40.88;101124.13;5113790;28;20051;-63
2023/10/06 04:49:08;;;;;;;5.65;2.78;;;;;;;20.73;40.78;101135.97;5113752;28;20540;-64
2023/10/06 04:51:37;;;;;;;6.25;2.75;;;;;;;20.72;40.66;101126.97;5113812;28;20044;-63
2023/10/06 04:54:08;;;;;;;5.93;3.10;;;;;;;20.72;40.76;101128.81;5113346;28;20069;-63
2023/10/06 04:56:36;;;;;;;4.97;2.60;;;;;;;20.71;40.73;101138.81;5113982;28;20059;-63
2023/10/06 04:59:06;;;;;;;5.53;2.88;;;;;;;20.70;40.42;101152.50;5113938;28;20052;-63
2023/10/06 05:01:35;;;;;;;5.45;2.40;;;;;;;20.70;40.68;101147.09;5113331;28;20043;-63
2023/10/06 05:04:07;;;;;;;4.85;2.50;;;;;;;20.69;40.47;101148.09;5113874;28;20043;-63
2023/10/06 05:06:35;;;;;;;6.17;2.70;;;;;;;20.68;40.47;101151.78;5113664;28;20221;-64
2023/10/06 05:09:06;;;;;;;6.40;2.83;;;;;;;20.68;40.65;101149.09;5113496;28;20067;-63
2023/10/06 05:11:37;;;;;;;5.35;2.58;;;;;;;20.66;40.71;101156.50;5112884;28;20127;-63
2023/10/06 05:14:08;;;;;;;6.18;2.75;;;;;;;20.66;40.47;101161.91;5113192;28;20043;-64
2023/10/06 05:16:37;;;;;;;7.20;2.50;;;;;;;20.66;40.77;101165.50;5113286;28;20048;-63
2023/10/06 05:19:07;;;;;;;4.70;2.28;;;;;;;20.65;40.84;101169.16;5113185;28;20069;-64
2023/10/06 05:21:37;;;;;;;4.95;2.45;;;;;;;20.64;40.59;101174.72;5113095;28;20040;-64
2023/10/06 05:24:08;;;;;;;5.18;2.88;;;;;;;20.63;40.88;101170.31;5112910;28;20139;-63
2023/10/06 05:26:37;;;;;;;5.30;2.50;;;;;;;20.64;40.93;101180.16;5112910;28;20040;-63
2023/10/06 05:29:08;;;;;;;6.10;2.60;;;;;;;20.63;40.52;101181.16;5112649;28;20051;-63
2023/10/06 05:31:38;;;;;;;5.28;2.78;;;;;;;20.62;40.96;101182.13;5112968;28;20130;-62
2023/10/06 05:34:08;;;;;;;5.38;2.60;;;;;;;20.58;41.01;101179.72;5112642;28;20051;-64
2023/10/06 05:36:36;;;;;;;6.07;2.85;;;;;;;20.61;40.64;101180.44;5112745;28;20489;-63
2023/10/06 05:39:05;;;;;;;6.15;2.80;;;;;;;20.60;40.59;101187.69;5112601;28;20557;-63
2023/10/06 05:41:36;;;;;;;6.25;3.00;;;;;;;20.58;40.69;101185.13;5112471;28;20163;-63
2023/10/06 05:44:08;;;;;;;4.93;2.60;;;;;;;20.59;40.94;101194.13;5112522;28;20047;-63
2023/10/06 05:46:36;;;;;;;5.93;2.88;;;;;;;20.58;40.56;101195.13;5112330;28;20050;-64
2023/10/06 05:49:08;;;;;;;7.45;3.40;;;;;;;20.56;40.95;101189.84;5111908;28;20051;-63
2023/10/06 05:51:38;;;;;;;6.97;3.00;;;;;;;20.57;40.66;101198.81;5112391;28;20050;-63
2023/10/06 05:54:11;;;;;;;5.22;2.80;;;;;;;20.57;40.71;101201.53;5112144;28;20050;-63
2023/10/06 05:56:44;;;;;;;6.10;3.00;;;;;;;20.56;40.62;101203.38;5112117;28;20484;-63
2023/10/06 05:59:18;;;;;;;5.90;2.83;;;;;;;20.55;40.67;101215.19;5112130;28;20083;-63
2023/10/06 06:01:55;;;;;;;6.25;3.10;;;;;;;20.56;40.66;101218.78;5112217;28;20135;-64
2023/10/06 06:04:28;;;;;;;6.00;3.05;;;;;;;20.56;40.97;101218.78;5112060;28;20043;-63
2023/10/06 06:06:57;;;;;;;5.30;2.80;;;;;;;20.55;40.55;101222.47;5112520;28;20059;-64
2023/10/06 06:09:27;;;;;;;6.65;2.85;;;;;;;20.54;40.57;101224.31;5111223;28;20051;-64
2023/10/06 06:11:55;;;;;;;6.25;3.00;;;;;;;20.54;41.03;101224.31;5110853;28;20051;-64
2023/10/06 06:14:23;;;;;;;5.63;2.85;;;;;;;20.53;40.69;101225.31;5112000;28;20039;-64
2023/10/06 06:16:52;;;;;;;8.00;3.40;;;;;;;20.54;40.58;101228.88;5111518;28;20044;-64
2023/10/06 06:19:21;;;;;;;6.57;3.05;;;;;;;20.54;41.03;101224.31;5111909;28;20043;-65
2023/10/06 06:21:50;;;;;;;6.80;2.90;;;;;;;20.53;40.57;101225.31;5112103;28;20069;-64
2023/10/06 06:24:22;;;;;;;7.88;3.22;;;;;;;20.54;40.72;101229.72;5111319;28;20047;-65
2023/10/06 06:26:50;;;;;;;6.57;2.83;;;;;;;20.54;40.98;101229.72;5111885;28;20553;-65
2023/10/06 06:29:19;;;;;;;5.43;2.63;;;;;;;20.54;41.03;101234.28;5111846;28;20044;-64
2023/10/06 06:31:49;;;;;;;5.75;3.03;;;;;;;20.53;40.97;101244.28;5112157;28;20048;-64
2023/10/06 06:34:18;;;;;;;6.78;2.90;;;;;;;20.53;40.51;101233.44;5111688;28;20063;-65
2023/10/06 06:36:47;;;;;;;6.65;3.25;;;;;;;20.54;40.79;101239.72;5111853;28;20070;-64
2023/10/06 06:39:17;;;;;;;6.35;2.75;;;;;;;20.53;40.85;101244.28;5111775;28;20484;-65
2023/10/06 06:41:45;;;;;;;6.38;3.00;;;;;;;20.53;40.75;101244.28;5111733;28;20454;-62
2023/10/06 06:44:13;;;;;;;6.32;2.97;;;;;;;20.53;40.62;101249.69;5111534;28;20055;-63
2023/10/06 06:46:43;;;;;;;6.07;3.00;;;;;;;20.52;40.67;101253.41;5111532;28;20552;-64
2023/10/06 06:49:11;;;;;;;7.55;3.30;;;;;;;20.53;40.61;101263.25;5111966;28;20047;-63
2023/10/06 06:51:40;;;;;;;5.97;2.92;;;;;;;20.52;40.75;101264.25;5111602;28;20047;-64
2023/10/06 06:54:10;;;;;;;6.05;2.95;;;;;;;20.52;41.02;101266.97;5111619;28;20054;-63
2023/10/06 06:56:39;;;;;;;6.10;3.03;;;;;;;20.52;40.67;101280.50;5093803;28;20071;-63
2023/10/06 06:59:09;;;;;;;6.60;2.97;;;;;;;20.51;40.86;101273.38;5111631;28;20047;-64
2023/10/06 07:01:38;;;;;;;5.85;3.00;;;;;;;20.51;40.94;101286.94;5111751;28;20135;-64
2023/10/06 07:04:07;;;;;;;7.38;3.10;;;;;;;20.51;40.83;101281.50;5111439;28;20059;-64
2023/10/06 07:06:36;;;;;;;8.07;3.20;;;;;;;20.52;40.99;101294.06;5111485;28;20044;-64
2023/10/06 07:09:12;;;;;;;6.20;3.08;;;;;;;20.50;40.81;101290.63;5111339;28;20059;-64
2023/10/06 07:11:43;;;;;;;7.18;3.08;;;;;;;20.51;40.93;101288.78;5111584;28;20446;-64
2023/10/06 07:14:14;;;;;;;7.35;3.60;;;;;;;20.52;41.09;101299.47;5111590;28;20046;-64
2023/10/06 07:16:43;;;;;;;6.32;3.40;;;;;;;20.51;40.93;101303.19;5111699;28;20086;-64
2023/10/06 07:19:14;;;;;;;5.88;2.90;;;;;;;20.51;40.77;101308.59;5111486;28;20500;-63
2023/10/06 07:21:43;;;;;;;6.15;2.95;;;;;;;20.51;40.91;101297.75;5111180;28;20048;-65
2023/10/06 07:24:13;;;;;;;7.60;3.60;;;;;;;20.52;40.77;101301.34;5111593;28;20051;-64
2023/10/06 07:26:43;;;;;;;7.90;3.15;;;;;;;20.52;40.73;101301.34;5111461;28;20048;-64
2023/10/06 07:29:12;;;;;;;6.15;2.95;;;;;;;20.51;41.29;101297.75;5111319;28;20088;-65
2023/10/06 07:31:41;;;;;;;8.48;3.40;;;;;;;20.52;41.31;101302.19;5111219;28;20044;-64
2023/10/06 07:34:11;;;;;;;6.75;2.97;;;;;;;20.51;40.88;101300.47;5111688;28;20120;-65
2023/10/06 07:36:40;;;;;;;7.88;3.38;;;;;;;20.52;41.16;101307.59;5115127;28;20039;-64
2023/10/06 07:39:11;;;;;;;6.85;3.00;;;;;;;20.52;41.08;101304.91;5115009;28;20052;-64
2023/10/06 07:41:44;;;;;;;7.63;3.10;;;;;;;20.53;41.25;101311.19;5115192;28;20047;-64
2023/10/06 07:44:14;;;;;;;7.22;3.38;;;;;;;20.53;41.29;101308.47;5115145;28;20051;-64
2023/10/06 07:46:46;;;;;;;8.68;3.75;;;;;;;20.52;41.42;101313.03;5114874;28;20048;-64
2023/10/06 07:49:15;;;;;;;6.53;3.35;;;;;;;20.52;41.35;101304.91;5115060;28;20071;-64
2023/10/06 07:51:45;;;;;;;6.22;3.25;;;;;;;20.53;41.01;101309.31;5114985;28;20135;-63
2023/10/06 07:54:13;;;;;;;8.23;3.60;;;;;;;20.52;41.36;101307.59;5115021;28;20044;-64
2023/10/06 07:56:42;;;;;;;7.93;3.25;;;;;;;20.52;41.34;101312.19;5114746;28;20043;-63
2023/10/06 07:59:11;;;;;;;7.05;2.97;;;;;;;20.54;41.05;101307.47;5114413;28;20051;-64
2023/10/06 08:01:40;;;;;;;7.07;3.20;;;;;;;20.54;41.44;101311.03;5114665;28;20140;-64
2023/10/06 08:04:08;;;;;;;7.32;3.22;;;;;;;20.54;41.21;101321.03;5114465;28;20050;-64
2023/10/06 08:06:37;;;;;;;6.05;3.10;;;;;;;20.54;41.50;101324.59;5114505;28;20430;-64
2023/10/06 08:09:06;;;;;;;6.45;2.90;;;;;;;20.54;41.35;101321.88;5114370;28;20188;-64
2023/10/06 08:11:34;;;;;;;6.00;2.80;;;;;;;20.54;41.48;101324.59;5114151;28;20531;-64
2023/10/06 08:14:03;;;;;;;6.82;3.28;;;;;;;20.55;41.52;101320.88;5114374;28;20043;-63
2023/10/06 08:16:33;;;;;;;5.80;3.03;;;;;;;20.56;41.34;101332.63;5114538;28;20039;-64
2023/10/06 08:19:06;;;;;;;6.40;3.00;;;;;;;20.56;41.55;101329.91;5114542;28;20044;-63
2023/10/06 08:21:34;;;;;;;5.13;2.72;;;;;;;20.56;41.53;101336.19;5114180;28;20051;-64
2023/10/06 08:24:04;;;;;;;5.22;2.65;;;;;;;20.56;41.77;101330.78;5114340;28;20082;-64
2023/10/06 08:26:36;;;;;;;5.97;2.92;;;;;;;20.57;41.68;101332.50;5114193;28;20366;-64
2023/10/06 08:29:05;;;;;;;6.40;3.13;;;;;;;20.57;41.76;101332.50;5114254;28;20074;-64
2023/10/06 08:31:35;;;;;;;6.13;2.90;;;;;;;20.58;41.44;101333.34;5113565;28;20389;-64
2023/10/06 08:34:05;;;;;;;7.05;3.28;;;;;;;20.60;41.83;101338.63;5113971;28;20641;-64
2023/10/06 08:36:35;;;;;;;7.38;3.25;;;;;;;20.58;41.45;101339.63;5114008;28;20044;-64
2023/10/06 08:39:04;;;;;;;6.05;2.97;;;;;;;20.60;41.60;101334.06;5113789;28;20120;-65
2023/10/06 08:41:36;;;;;;;5.07;2.60;;;;;;;20.62;41.64;101344.78;5114080;28;20412;-64
2023/10/06 08:44:07;;;;;;;6.63;3.08;;;;;;;20.61;41.57;101346.63;5113984;28;20055;-64
2023/10/06 08:46:41;;;;;;;5.88;2.83;;;;;;;20.63;41.95;101346.50;5113034;28;20043;-64
2023/10/06 08:49:09;;;;;;;7.28;3.25;;;;;;;20.64;41.72;101345.50;5113633;28;20058;-65
2023/10/06 08:51:41;;;;;;;5.28;2.80;;;;;;;20.64;41.61;101331.94;5113651;28;20151;-64
2023/10/06 08:54:14;;;;;;;6.68;3.10;;;;;;;20.58;41.90;101325.22;5113945;28;20047;-64
2023/10/06 08:56:43;;;;;;;5.00;2.63;;;;;;;20.65;41.99;101331.81;5113681;28;20048;-64
2023/10/06 08:59:15;;;;;;;6.90;2.88;;;;;;;20.65;42.01;101329.09;5113623;28;20043;-62
2023/10/06 09:01:45;;;;;;;6.13;2.90;;;;;;;20.68;41.75;101322.56;5113790;28;20047;-64
2023/10/06 09:04:14;;;;;;;4.97;2.38;;;;;;;20.69;41.89;101318.88;5113465;28;20043;-64
2023/10/06 09:07:09;;;;;;;5.25;2.85;;;;;;;20.70;42.17;101326.00;5113306;28;20043;-64
2023/10/06 09:09:37;;;;;;;5.47;2.70;;;;;;;20.71;42.17;101328.59;5113430;28;20040;-64
2023/10/06 09:12:06;;;;;;;4.93;2.60;;;;;;;20.72;42.14;101324.03;5113213;28;20051;-64
2023/10/06 09:14:50;;;;;;;5.68;2.90;;;;;;;20.73;41.94;101336.59;5113326;28;20430;-64
2023/10/06 09:17:30;;;;;;;5.43;2.50;;;;;;;20.75;42.10;101340.00;5113310;28;20062;-64
2023/10/06 09:19:59;;;;;;;5.38;2.88;;;;;;;20.76;42.34;101333.63;5113481;28;20096;-64
2023/10/06 09:22:32;;;;;;;5.40;2.40;;;;;;;20.78;42.27;101342.47;5113086;28;20043;-64
2023/10/06 09:25:04;;;;;;;5.45;2.85;;;;;;;20.80;42.26;101330.50;5113025;28;20076;-64
2023/10/06 09:27:37;;;;;;;5.35;2.70;;;;;;;20.82;42.25;101335.78;5113236;28;20043;-64
2023/10/06 09:30:07;;;;;;;5.93;3.05;;;;;;;20.83;42.22;101337.50;5113201;28;20412;-64
2023/10/06 09:32:37;;;;;;;5.63;2.30;;;;;;;20.85;42.09;101333.69;5113071;28;20039;-65
2023/10/06 09:35:20;;;;;;;5.88;2.53;;;;;;;20.86;41.75;101316.44;5112796;28;20055;-64
2023/10/06 09:37:48;;;;;;;6.25;2.75;;;;;;;20.89;42.33;101320.72;5094239;28;20488;-64
2023/10/06 09:40:20;;;;;;;5.05;2.63;;;;;;;20.92;42.00;101309.59;5113126;28;20051;-64
2023/10/06 09:42:50;;;;;;;5.70;2.75;;;;;;;20.94;42.08;101313.06;5095384;28;20043;-64
2023/10/06 09:45:21;;;;;;;5.90;3.08;;;;;;;20.94;42.26;101302.22;5112762;28;20454;-64
2023/10/06 09:47:56;;;;;;;5.93;2.90;;;;;;;20.97;42.06;101301.94;5112755;28;20043;-64
2023/10/06 09:50:26;;;;;;;5.60;2.47;;;;;;;21.01;42.21;101299.78;5112757;28;20040;-64
2023/10/06 09:52:56;;;;;;;6.07;2.90;;;;;;;21.03;42.13;101293.25;5112571;28;20465;-64
2023/10/06 09:55:25;;;;;;;5.47;2.47;;;;;;;21.05;41.93;101294.00;5112517;28;20050;-64
2023/10/06 09:57:56;;;;;;;7.97;2.47;;;;;;;21.09;42.00;101300.00;5112123;28;20131;-65
2023/10/06 10:00:29;;;;;;;4.90;2.40;;;;;;;21.13;41.93;101287.84;5112299;28;20051;-64
2023/10/06 10:03:01;;;;;;;5.55;2.80;;;;;;;21.17;42.23;101297.47;5112519;28;20050;-64
2023/10/06 10:05:30;;;;;;;5.50;2.55;;;;;;;21.21;42.33;101292.63;5112500;28;20150;-64
2023/10/06 10:07:59;;;;;;;5.15;2.78;;;;;;;21.25;42.56;101294.09;5112048;28;20039;-65
2023/10/06 10:10:31;;;;;;;5.40;2.63;;;;;;;21.29;42.61;101295.53;5112481;28;20043;-64
2023/10/06 10:13:38;;;;;;;5.47;2.60;;;;;;;21.34;42.91;101290.59;5112074;28;20166;-64
2023/10/06 10:16:25;;;;;;;4.90;2.67;;;;;;;21.39;42.90;101291.00;5112290;28;20055;-64
2023/10/06 10:19:01;;;;;;;5.93;2.50;;;;;;;21.45;42.96;101284.19;5112231;28;20101;-64
2023/10/06 10:21:34;;;;;;;5.60;2.85;;;;;;;21.50;42.60;101271.91;5111974;28;20039;-64
2023/10/06 10:24:05;;;;;;;6.35;2.72;;;;;;;21.55;42.35;101260.66;5112119;28;20473;-64
2023/10/06 10:26:55;;;;;;;4.60;2.42;;;;;;;21.61;42.78;101257.38;5112360;28;20138;-64
2023/10/06 10:29:32;;;;;;;4.90;2.47;;;;;;;21.65;42.59;101254.25;5112122;28;20138;-64
2023/10/06 10:32:12;;;;;;;5.07;2.75;;;;;;;21.71;42.52;101255.53;5111749;28;20054;-63
2023/10/06 10:35:12;;;;;;;5.28;2.45;;;;;;;21.77;42.53;101254.97;5111897;28;20069;-63
2023/10/06 10:38:02;;;;;;;4.97;2.60;;;;;;;21.84;42.71;101252.56;5111525;28;20125;-63
2023/10/06 10:40:46;;;;;;;4.50;2.22;;;;;;;21.90;42.46;101246.56;5107583;28;20043;-63
2023/10/06 10:43:16;;;;;;;5.00;2.35;;;;;;;21.96;42.26;101248.72;5111864;28;20055;-64
2023/10/06 10:46:06;;;;;;;3.97;2.20;;;;;;;22.00;42.08;101248.31;5111794;28;20079;-64
2023/10/06 10:48:37;;;;;;;5.18;2.38;;;;;;;22.06;42.08;101235.13;5111378;28;20050;-63
2023/10/06 10:51:13;;;;;;;4.93;2.53;;;;;;;22.11;42.03;101241.03;5111611;28;20047;-63
2023/10/06 10:53:43;;;;;;;5.05;2.42;;;;;;;22.16;42.26;101230.59;5111798;28;20137;-63
2023/10/06 10:56:13;;;;;;;4.57;2.33;;;;;;;22.22;41.86;101230.88;5111552;28;20385;-64
2023/10/06 10:59:00;;;;;;;4.78;2.60;;;;;;;22.28;42.10;101235.72;5111475;28;20048;-63
2023/10/06 11:01:31;;;;;;;4.43;2.45;;;;;;;22.34;41.92;101238.88;5111276;28;20134;-63
2023/10/06 11:04:25;;;;;;;4.80;2.40;;;;;;;22.39;41.99;101236.56;5111684;28;20050;-63
2023/10/06 11:06:58;;;;;;;4.53;2.35;;;;;;;22.44;41.97;101229.72;5111540;28;20413;-63
2023/10/06 11:09:29;;;;;;;5.28;2.63;;;;;;;22.51;41.79;101230.00;5112376;28;20096;-63
2023/10/06 11:11:59;;;;;;;3.97;2.15;;;;;;;22.55;41.74;101225.97;5115430;28;20443;-63
2023/10/06 11:14:51;;;;;;;4.35;2.28;;;;;;;22.62;41.67;101221.66;5115465;28;20053;-63
2023/10/06 11:17:21;;;;;;;5.95;2.47;;;;;;;22.66;41.85;101214.91;5115122;28;20039;-63
2023/10/06 11:20:12;;;;;;;4.63;2.20;;;;;;;22.74;41.59;101215.03;5115704;28;20051;-63
2023/10/06 11:22:52;;;;;;;4.70;2.30;;;;;;;22.79;41.49;101215.47;5115707;28;20039;-63
2023/10/06 11:25:27;;;;;;;5.15;2.28;;;;;;;22.84;41.53;101218.63;5115438;28;20109;-63
2023/10/06 11:28:08;;;;;;;4.18;2.35;;;;;;;22.89;41.44;101203.72;5115237;28;20442;-63
2023/10/06 11:30:38;;;;;;;4.45;2.22;;;;;;;22.95;41.41;101201.25;5115174;28;20071;-64
2023/10/06 11:33:09;;;;;;;4.50;2.30;;;;;;;23.02;41.38;101206.97;5115480;28;20105;-64
2023/10/06 11:35:40;;;;;;;4.03;2.17;;;;;;;23.08;41.46;101211.81;5115225;28;20159;-64
2023/10/06 11:38:12;;;;;;;4.57;2.10;;;;;;;23.13;41.39;101217.66;5115298;28;20063;-64
2023/10/06 11:40:41;;;;;;;5.00;2.50;;;;;;;23.15;41.41;101215.63;5115252;28;20043;-64
2023/10/06 11:43:12;;;;;;;4.35;2.20;;;;;;;23.17;41.30;101208.19;5115014;28;20052;-64
2023/10/06 11:45:42;;;;;;;4.15;1.98;;;;;;;23.16;41.46;101206.44;5114952;28;20048;-64